sensor_id;sensor_type;location;lat;lon;timestamp;temperature;humidity
20479;DHT22;10398;52.490;13.434;2023-02-15T00:02:01;6.30;99.90
20479;DHT22;10398;52.490;13.434;2023-02-15T00:04:27;6.30;99.90
20479;DHT22;10398;52.490;13.434;2023-02-15T00:07:14;6.40;99.90
20479;DHT22;10398;52.490;13.434;2023-02-15T00:09:40;6.40;99.90
20479;DHT22;10398;52.490;13.434;2023-02-15T00:12:06;6.40;99.90
20479;DHT22;10398;52.490;13.434;2023-02-15T00:14:32;6.40;99.90
20479;DHT22;10398;52.490;13.434;2023-02-15T00:16:57;6.40;99.90
20479;DHT22;10398;52.490;13.434;2023-02-15T00:19:26;6.50;99.90
20479;DHT22;10398;52.490;13.434;2023-02-15T00:21:51;6.50;99.90
20479;DHT22;10398;52.490;13.434;2023-02-15T00:24:18;6.50;99.90
20479;DHT22;10398;52.490;13.434;2023-02-15T00:26:45;6.50;99.90
20479;DHT22;10398;52.490;13.434;2023-02-15T00:29:12;6.50;99.90
20479;DHT22;10398;52.490;13.434;2023-02-15T00:31:38;6.50;99.90
20479;DHT22;10398;52.490;13.434;2023-02-15T00:36:31;6.40;99.90
20479;DHT22;10398;52.490;13.434;2023-02-15T00:38:57;6.30;99.90
20479;DHT22;10398;52.490;13.434;2023-02-15T00:41:23;6.30;99.90
20479;DHT22;10398;52.490;13.434;2023-02-15T00:43:49;6.30;99.90
20479;DHT22;10398;52.490;13.434;2023-02-15T00:46:14;6.20;99.90
20479;DHT22;10398;52.490;13.434;2023-02-15T00:48:40;6.20;99.90
20479;DHT22;10398;52.490;13.434;2023-02-15T00:51:06;6.30;99.90
20479;DHT22;10398;52.490;13.434;2023-02-15T00:53:31;6.30;99.90
20479;DHT22;10398;52.490;13.434;2023-02-15T00:55:57;6.30;99.90
20479;DHT22;10398;52.490;13.434;2023-02-15T00:58:24;6.20;99.90
20479;DHT22;10398;52.490;13.434;2023-02-15T01:00:50;6.20;99.90
20479;DHT22;10398;52.490;13.434;2023-02-15T01:03:17;6.20;99.90
20479;DHT22;10398;52.490;13.434;2023-02-15T01:05:43;6.20;99.90
20479;DHT22;10398;52.490;13.434;2023-02-15T01:08:09;6.10;99.90
20479;DHT22;10398;52.490;13.434;2023-02-15T01:10:37;6.10;99.90
20479;DHT22;10398;52.490;13.434;2023-02-15T01:13:04;6.10;99.90
20479;DHT22;10398;52.490;13.434;2023-02-15T01:15:29;6.10;99.90
20479;DHT22;10398;52.490;13.434;2023-02-15T01:17:55;6.10;99.90
20479;DHT22;10398;52.490;13.434;2023-02-15T01:20:24;6.00;99.90
20479;DHT22;10398;52.490;13.434;2023-02-15T01:22:50;6.00;99.90
20479;DHT22;10398;52.490;13.434;2023-02-15T01:25:17;5.90;99.90
20479;DHT22;10398;52.490;13.434;2023-02-15T01:27:43;5.90;99.90
20479;DHT22;10398;52.490;13.434;2023-02-15T01:30:10;5.90;99.90
20479;DHT22;10398;52.490;13.434;2023-02-15T01:32:36;5.80;99.90
20479;DHT22;10398;52.490;13.434;2023-02-15T01:35:02;5.80;99.90
20479;DHT22;10398;52.490;13.434;2023-02-15T01:37:30;5.80;99.90
20479;DHT22;10398;52.490;13.434;2023-02-15T01:39:56;5.70;99.90
20479;DHT22;10398;52.490;13.434;2023-02-15T01:42:23;5.80;99.90
20479;DHT22;10398;52.490;13.434;2023-02-15T01:44:50;5.70;99.90
20479;DHT22;10398;52.490;13.434;2023-02-15T01:47:29;5.70;99.90
20479;DHT22;10398;52.490;13.434;2023-02-15T01:52:52;5.60;99.90
20479;DHT22;10398;52.490;13.434;2023-02-15T01:55:22;5.60;99.90
20479;DHT22;10398;52.490;13.434;2023-02-15T01:57:49;5.60;99.90
20479;DHT22;10398;52.490;13.434;2023-02-15T02:00:17;5.60;99.90
20479;DHT22;10398;52.490;13.434;2023-02-15T02:02:45;5.50;99.90
20479;DHT22;10398;52.490;13.434;2023-02-15T02:05:13;5.50;99.90
20479;DHT22;10398;52.490;13.434;2023-02-15T02:07:42;5.50;99.90
20479;DHT22;10398;52.490;13.434;2023-02-15T02:10:11;5.40;99.90
20479;DHT22;10398;52.490;13.434;2023-02-15T02:12:38;5.40;99.90
20479;DHT22;10398;52.490;13.434;2023-02-15T02:15:06;5.40;99.90
20479;DHT22;10398;52.490;13.434;2023-02-15T02:17:47;5.40;99.90
20479;DHT22;10398;52.490;13.434;2023-02-15T02:23:29;5.30;99.90
20479;DHT22;10398;52.490;13.434;2023-02-15T02:40:35;5.50;99.90
20479;DHT22;10398;52.490;13.434;2023-02-15T02:43:14;5.50;99.90
20479;DHT22;10398;52.490;13.434;2023-02-15T02:45:57;5.30;99.90
20479;DHT22;10398;52.490;13.434;2023-02-15T02:48:26;5.30;99.90
20479;DHT22;10398;52.490;13.434;2023-02-15T02:50:53;5.30;99.90
20479;DHT22;10398;52.490;13.434;2023-02-15T02:53:18;5.30;99.90
20479;DHT22;10398;52.490;13.434;2023-02-15T02:59:00;5.20;99.90
20479;DHT22;10398;52.490;13.434;2023-02-15T03:01:35;5.10;99.90
20479;DHT22;10398;52.490;13.434;2023-02-15T03:04:13;5.00;99.90
20479;DHT22;10398;52.490;13.434;2023-02-15T03:09:40;4.90;99.90
20479;DHT22;10398;52.490;13.434;2023-02-15T03:14:42;5.00;99.90
20479;DHT22;10398;52.490;13.434;2023-02-15T03:17:09;4.90;99.90
20479;DHT22;10398;52.490;13.434;2023-02-15T03:19:38;5.00;99.90
20479;DHT22;10398;52.490;13.434;2023-02-15T03:22:28;5.00;99.90
20479;DHT22;10398;52.490;13.434;2023-02-15T03:25:02;4.90;99.90
20479;DHT22;10398;52.490;13.434;2023-02-15T03:27:45;5.00;99.90
20479;DHT22;10398;52.490;13.434;2023-02-15T03:30:15;4.90;99.90
20479;DHT22;10398;52.490;13.434;2023-02-15T03:32:43;4.90;99.90
20479;DHT22;10398;52.490;13.434;2023-02-15T03:35:09;4.90;99.90
20479;DHT22;10398;52.490;13.434;2023-02-15T03:37:48;4.90;99.90
20479;DHT22;10398;52.490;13.434;2023-02-15T03:40:21;4.70;99.90
20479;DHT22;10398;52.490;13.434;2023-02-15T03:43:19;4.80;99.90
20479;DHT22;10398;52.490;13.434;2023-02-15T03:45:51;4.60;99.90
20479;DHT22;10398;52.490;13.434;2023-02-15T03:48:31;4.60;99.90
20479;DHT22;10398;52.490;13.434;2023-02-15T03:51:02;4.60;99.90
20479;DHT22;10398;52.490;13.434;2023-02-15T03:53:48;4.60;99.90
20479;DHT22;10398;52.490;13.434;2023-02-15T03:56:15;4.50;99.90
20479;DHT22;10398;52.490;13.434;2023-02-15T03:58:41;4.50;99.90
20479;DHT22;10398;52.490;13.434;2023-02-15T04:01:42;4.50;99.90
20479;DHT22;10398;52.490;13.434;2023-02-15T04:04:38;4.50;99.90
20479;DHT22;10398;52.490;13.434;2023-02-15T04:07:06;4.50;99.90
20479;DHT22;10398;52.490;13.434;2023-02-15T04:09:32;4.40;99.90
20479;DHT22;10398;52.490;13.434;2023-02-15T04:12:16;4.30;99.90
20479;DHT22;10398;52.490;13.434;2023-02-15T04:14:42;4.20;99.90
20479;DHT22;10398;52.490;13.434;2023-02-15T04:17:27;4.30;99.90
20479;DHT22;10398;52.490;13.434;2023-02-15T04:19:52;4.10;99.90
20479;DHT22;10398;52.490;13.434;2023-02-15T04:22:37;4.00;99.90
20479;DHT22;10398;52.490;13.434;2023-02-15T04:25:21;3.90;99.90
20479;DHT22;10398;52.490;13.434;2023-02-15T04:27:53;4.00;99.90
20479;DHT22;10398;52.490;13.434;2023-02-15T04:30:22;3.90;99.90
20479;DHT22;10398;52.490;13.434;2023-02-15T04:32:48;3.90;99.90
20479;DHT22;10398;52.490;13.434;2023-02-15T04:35:14;4.00;99.90
20479;DHT22;10398;52.490;13.434;2023-02-15T04:37:41;4.00;99.90
20479;DHT22;10398;52.490;13.434;2023-02-15T04:40:10;3.90;99.90
20479;DHT22;10398;52.490;13.434;2023-02-15T04:42:36;3.80;99.90
20479;DHT22;10398;52.490;13.434;2023-02-15T04:45:01;3.90;99.90
20479;DHT22;10398;52.490;13.434;2023-02-15T04:47:27;3.80;99.90
20479;DHT22;10398;52.490;13.434;2023-02-15T04:49:53;3.90;99.90
20479;DHT22;10398;52.490;13.434;2023-02-15T04:52:18;3.90;99.90
20479;DHT22;10398;52.490;13.434;2023-02-15T04:54:45;3.90;99.90
20479;DHT22;10398;52.490;13.434;2023-02-15T04:57:10;3.90;99.90
20479;DHT22;10398;52.490;13.434;2023-02-15T04:59:36;3.80;99.90
20479;DHT22;10398;52.490;13.434;2023-02-15T05:02:02;3.80;99.90
20479;DHT22;10398;52.490;13.434;2023-02-15T05:04:28;3.80;99.90
20479;DHT22;10398;52.490;13.434;2023-02-15T05:06:53;3.70;99.90
20479;DHT22;10398;52.490;13.434;2023-02-15T05:09:19;3.60;99.90
20479;DHT22;10398;52.490;13.434;2023-02-15T05:11:45;3.50;99.90
20479;DHT22;10398;52.490;13.434;2023-02-15T05:14:10;3.50;99.90
20479;DHT22;10398;52.490;13.434;2023-02-15T05:16:36;3.50;99.90
20479;DHT22;10398;52.490;13.434;2023-02-15T05:19:02;3.40;99.90
20479;DHT22;10398;52.490;13.434;2023-02-15T05:21:28;3.40;99.90
20479;DHT22;10398;52.490;13.434;2023-02-15T05:23:54;3.50;99.90
20479;DHT22;10398;52.490;13.434;2023-02-15T05:26:22;3.50;99.90
20479;DHT22;10398;52.490;13.434;2023-02-15T05:29:07;3.40;99.90
20479;DHT22;10398;52.490;13.434;2023-02-15T05:31:33;3.50;99.90
20479;DHT22;10398;52.490;13.434;2023-02-15T05:33:59;3.50;99.90
20479;DHT22;10398;52.490;13.434;2023-02-15T05:36:25;3.50;99.90
20479;DHT22;10398;52.490;13.434;2023-02-15T05:38:51;3.40;99.90
20479;DHT22;10398;52.490;13.434;2023-02-15T05:41:17;3.40;99.90
20479;DHT22;10398;52.490;13.434;2023-02-15T05:43:43;3.40;99.90
20479;DHT22;10398;52.490;13.434;2023-02-15T05:46:08;3.20;99.90
20479;DHT22;10398;52.490;13.434;2023-02-15T05:48:35;3.20;99.90
20479;DHT22;10398;52.490;13.434;2023-02-15T05:51:05;3.40;99.90
20479;DHT22;10398;52.490;13.434;2023-02-15T05:53:32;3.30;99.90
20479;DHT22;10398;52.490;13.434;2023-02-15T05:55:58;3.20;99.90
20479;DHT22;10398;52.490;13.434;2023-02-15T05:58:36;3.30;99.90
20479;DHT22;10398;52.490;13.434;2023-02-15T06:01:13;3.10;99.90
20479;DHT22;10398;52.490;13.434;2023-02-15T06:03:40;3.20;99.90
20479;DHT22;10398;52.490;13.434;2023-02-15T06:06:06;3.00;99.90
20479;DHT22;10398;52.490;13.434;2023-02-15T06:08:32;3.00;99.90
20479;DHT22;10398;52.490;13.434;2023-02-15T06:10:59;3.10;99.90
20479;DHT22;10398;52.490;13.434;2023-02-15T06:13:25;3.10;99.90
20479;DHT22;10398;52.490;13.434;2023-02-15T06:15:50;3.00;99.90
20479;DHT22;10398;52.490;13.434;2023-02-15T06:18:16;3.00;99.90
20479;DHT22;10398;52.490;13.434;2023-02-15T06:20:42;3.00;99.90
20479;DHT22;10398;52.490;13.434;2023-02-15T06:23:07;3.00;99.90
20479;DHT22;10398;52.490;13.434;2023-02-15T06:25:33;3.00;99.90
20479;DHT22;10398;52.490;13.434;2023-02-15T06:27:58;2.90;99.90
20479;DHT22;10398;52.490;13.434;2023-02-15T06:30:24;2.90;99.90
20479;DHT22;10398;52.490;13.434;2023-02-15T06:32:50;2.80;99.90
20479;DHT22;10398;52.490;13.434;2023-02-15T06:35:15;2.80;99.90
20479;DHT22;10398;52.490;13.434;2023-02-15T06:37:41;2.80;99.90
20479;DHT22;10398;52.490;13.434;2023-02-15T06:40:07;2.90;99.90
20479;DHT22;10398;52.490;13.434;2023-02-15T06:42:33;2.90;99.90
20479;DHT22;10398;52.490;13.434;2023-02-15T06:44:59;3.00;99.90
20479;DHT22;10398;52.490;13.434;2023-02-15T06:47:25;2.90;99.90
20479;DHT22;10398;52.490;13.434;2023-02-15T06:49:51;2.70;99.90
20479;DHT22;10398;52.490;13.434;2023-02-15T06:52:17;2.70;99.90
20479;DHT22;10398;52.490;13.434;2023-02-15T06:54:42;2.60;99.90
20479;DHT22;10398;52.490;13.434;2023-02-15T06:57:08;2.70;99.90
20479;DHT22;10398;52.490;13.434;2023-02-15T06:59:34;2.70;99.90
20479;DHT22;10398;52.490;13.434;2023-02-15T07:02:00;2.70;99.90
20479;DHT22;10398;52.490;13.434;2023-02-15T07:04:26;2.60;99.90
20479;DHT22;10398;52.490;13.434;2023-02-15T07:06:54;2.30;99.90
20479;DHT22;10398;52.490;13.434;2023-02-15T07:09:19;2.20;99.90
20479;DHT22;10398;52.490;13.434;2023-02-15T07:11:45;2.20;99.90
20479;DHT22;10398;52.490;13.434;2023-02-15T07:14:29;2.20;99.90
20479;DHT22;10398;52.490;13.434;2023-02-15T07:16:55;2.30;99.90
20479;DHT22;10398;52.490;13.434;2023-02-15T07:19:21;2.30;99.90
20479;DHT22;10398;52.490;13.434;2023-02-15T07:21:46;2.20;99.90
20479;DHT22;10398;52.490;13.434;2023-02-15T07:24:12;2.20;99.90
20479;DHT22;10398;52.490;13.434;2023-02-15T07:26:38;2.30;99.90
20479;DHT22;10398;52.490;13.434;2023-02-15T07:29:03;2.30;99.90
20479;DHT22;10398;52.490;13.434;2023-02-15T07:31:29;2.30;99.90
20479;DHT22;10398;52.490;13.434;2023-02-15T07:33:55;2.40;99.90
20479;DHT22;10398;52.490;13.434;2023-02-15T07:36:21;2.30;99.90
20479;DHT22;10398;52.490;13.434;2023-02-15T07:38:47;2.10;99.90
20479;DHT22;10398;52.490;13.434;2023-02-15T07:41:14;2.10;99.90
20479;DHT22;10398;52.490;13.434;2023-02-15T07:43:42;2.20;99.90
20479;DHT22;10398;52.490;13.434;2023-02-15T07:46:10;2.10;99.90
20479;DHT22;10398;52.490;13.434;2023-02-15T07:48:38;2.30;99.90
20479;DHT22;10398;52.490;13.434;2023-02-15T07:51:06;2.30;99.90
20479;DHT22;10398;52.490;13.434;2023-02-15T07:53:32;2.20;99.90
20479;DHT22;10398;52.490;13.434;2023-02-15T07:56:02;2.30;99.90
20479;DHT22;10398;52.490;13.434;2023-02-15T07:58:28;2.40;99.90
20479;DHT22;10398;52.490;13.434;2023-02-15T08:01:13;2.50;99.90
20479;DHT22;10398;52.490;13.434;2023-02-15T08:03:39;2.50;99.90
20479;DHT22;10398;52.490;13.434;2023-02-15T08:06:04;2.50;99.90
20479;DHT22;10398;52.490;13.434;2023-02-15T08:08:30;2.60;99.90
20479;DHT22;10398;52.490;13.434;2023-02-15T08:13:49;2.60;99.90
20479;DHT22;10398;52.490;13.434;2023-02-15T08:19:12;2.60;99.90
20479;DHT22;10398;52.490;13.434;2023-02-15T08:21:40;2.60;99.90
20479;DHT22;10398;52.490;13.434;2023-02-15T08:24:08;2.60;99.90
20479;DHT22;10398;52.490;13.434;2023-02-15T08:26:34;2.60;99.90
20479;DHT22;10398;52.490;13.434;2023-02-15T08:29:01;2.70;99.90
20479;DHT22;10398;52.490;13.434;2023-02-15T08:31:28;2.80;99.90
20479;DHT22;10398;52.490;13.434;2023-02-15T08:33:55;2.90;99.90
20479;DHT22;10398;52.490;13.434;2023-02-15T08:36:23;2.80;99.90
20479;DHT22;10398;52.490;13.434;2023-02-15T08:38:49;2.80;99.90
20479;DHT22;10398;52.490;13.434;2023-02-15T08:41:20;2.70;99.90
20479;DHT22;10398;52.490;13.434;2023-02-15T08:43:48;2.80;99.90
20479;DHT22;10398;52.490;13.434;2023-02-15T08:46:15;2.80;99.90
20479;DHT22;10398;52.490;13.434;2023-02-15T08:48:42;2.90;99.90
20479;DHT22;10398;52.490;13.434;2023-02-15T08:51:15;2.90;99.90
20479;DHT22;10398;52.490;13.434;2023-02-15T08:53:44;3.00;99.90
20479;DHT22;10398;52.490;13.434;2023-02-15T08:56:11;3.00;99.90
20479;DHT22;10398;52.490;13.434;2023-02-15T08:58:37;3.00;99.90
20479;DHT22;10398;52.490;13.434;2023-02-15T09:01:14;3.10;99.90
20479;DHT22;10398;52.490;13.434;2023-02-15T09:03:44;3.20;99.90
20479;DHT22;10398;52.490;13.434;2023-02-15T09:06:10;3.10;99.90
20479;DHT22;10398;52.490;13.434;2023-02-15T09:08:36;3.10;99.90
20479;DHT22;10398;52.490;13.434;2023-02-15T09:11:14;3.10;99.90
20479;DHT22;10398;52.490;13.434;2023-02-15T09:13:55;3.20;99.90
20479;DHT22;10398;52.490;13.434;2023-02-15T09:16:22;3.10;99.90
20479;DHT22;10398;52.490;13.434;2023-02-15T09:18:49;3.20;99.90
20479;DHT22;10398;52.490;13.434;2023-02-15T09:21:17;3.20;99.90
20479;DHT22;10398;52.490;13.434;2023-02-15T09:23:44;3.10;99.90
20479;DHT22;10398;52.490;13.434;2023-02-15T09:26:16;3.20;99.90
20479;DHT22;10398;52.490;13.434;2023-02-15T09:28:42;3.20;99.90
20479;DHT22;10398;52.490;13.434;2023-02-15T09:31:16;3.20;99.90
20479;DHT22;10398;52.490;13.434;2023-02-15T09:33:43;3.20;99.90
20479;DHT22;10398;52.490;13.434;2023-02-15T09:36:21;3.30;99.90
20479;DHT22;10398;52.490;13.434;2023-02-15T09:38:58;3.40;99.90
20479;DHT22;10398;52.490;13.434;2023-02-15T09:52:38;4.40;99.90
20479;DHT22;10398;52.490;13.434;2023-02-15T10:01:04;4.70;99.90
20479;DHT22;10398;52.490;13.434;2023-02-15T10:03:53;4.60;99.90
20479;DHT22;10398;52.490;13.434;2023-02-15T10:06:33;4.70;99.90
20479;DHT22;10398;52.490;13.434;2023-02-15T10:09:33;4.80;99.90
20479;DHT22;10398;52.490;13.434;2023-02-15T10:26:20;5.40;99.90
20479;DHT22;10398;52.490;13.434;2023-02-15T10:28:59;5.50;99.90
20479;DHT22;10398;52.490;13.434;2023-02-15T10:31:48;5.40;99.90
20479;DHT22;10398;52.490;13.434;2023-02-15T10:40:01;5.90;99.90
20479;DHT22;10398;52.490;13.434;2023-02-15T11:06:35;7.40;99.90
20479;DHT22;10398;52.490;13.434;2023-02-15T11:09:04;8.00;99.90
20479;DHT22;10398;52.490;13.434;2023-02-15T11:11:38;8.60;99.90
20479;DHT22;10398;52.490;13.434;2023-02-15T11:14:17;9.10;99.90
20479;DHT22;10398;52.490;13.434;2023-02-15T11:16:50;9.40;99.90
20479;DHT22;10398;52.490;13.434;2023-02-15T11:19:28;9.40;99.90
20479;DHT22;10398;52.490;13.434;2023-02-15T11:21:59;9.60;99.90
20479;DHT22;10398;52.490;13.434;2023-02-15T11:24:29;9.70;99.90
20479;DHT22;10398;52.490;13.434;2023-02-15T11:29:41;10.00;99.90
20479;DHT22;10398;52.490;13.434;2023-02-15T11:32:26;10.10;99.90
20479;DHT22;10398;52.490;13.434;2023-02-15T11:37:50;10.40;99.90
20479;DHT22;10398;52.490;13.434;2023-02-15T11:40:45;10.60;99.90
20479;DHT22;10398;52.490;13.434;2023-02-15T11:43:26;10.60;99.90
20479;DHT22;10398;52.490;13.434;2023-02-15T11:45:54;10.40;99.90
20479;DHT22;10398;52.490;13.434;2023-02-15T11:48:20;10.50;99.90
20479;DHT22;10398;52.490;13.434;2023-02-15T11:50:46;10.70;99.90
20479;DHT22;10398;52.490;13.434;2023-02-15T11:53:21;10.80;99.90
20479;DHT22;10398;52.490;13.434;2023-02-15T11:55:50;10.90;99.90
20479;DHT22;10398;52.490;13.434;2023-02-15T11:58:40;11.10;99.90
20479;DHT22;10398;52.490;13.434;2023-02-15T12:03:47;11.30;99.90
20479;DHT22;10398;52.490;13.434;2023-02-15T12:08:55;11.60;99.90
20479;DHT22;10398;52.490;13.434;2023-02-15T12:11:34;11.70;99.90
20479;DHT22;10398;52.490;13.434;2023-02-15T12:14:08;11.90;99.90
20479;DHT22;10398;52.490;13.434;2023-02-15T12:19:21;12.20;99.90
20479;DHT22;10398;52.490;13.434;2023-02-15T12:21:51;12.40;99.90
20479;DHT22;10398;52.490;13.434;2023-02-15T12:24:28;12.50;99.90
20479;DHT22;10398;52.490;13.434;2023-02-15T12:27:14;12.80;99.90
20479;DHT22;10398;52.490;13.434;2023-02-15T12:29:43;13.00;99.90
20479;DHT22;10398;52.490;13.434;2023-02-15T12:32:26;13.20;99.90
20479;DHT22;10398;52.490;13.434;2023-02-15T12:35:21;13.40;99.90
20479;DHT22;10398;52.490;13.434;2023-02-15T12:37:56;13.60;99.90
20479;DHT22;10398;52.490;13.434;2023-02-15T12:40:30;13.50;99.90
20479;DHT22;10398;52.490;13.434;2023-02-15T12:42:56;13.70;99.90
20479;DHT22;10398;52.490;13.434;2023-02-15T12:45:32;13.80;99.90
20479;DHT22;10398;52.490;13.434;2023-02-15T12:48:16;13.90;99.90
20479;DHT22;10398;52.490;13.434;2023-02-15T12:50:44;13.90;99.90
20479;DHT22;10398;52.490;13.434;2023-02-15T12:53:19;14.00;99.90
20479;DHT22;10398;52.490;13.434;2023-02-15T12:55:57;14.10;99.90
20479;DHT22;10398;52.490;13.434;2023-02-15T12:58:25;14.30;99.90
20479;DHT22;10398;52.490;13.434;2023-02-15T13:01:15;14.40;99.90
20479;DHT22;10398;52.490;13.434;2023-02-15T13:03:58;14.70;99.90
20479;DHT22;10398;52.490;13.434;2023-02-15T13:06:25;14.90;99.90
20479;DHT22;10398;52.490;13.434;2023-02-15T13:08:54;15.00;99.90
20479;DHT22;10398;52.490;13.434;2023-02-15T13:11:29;15.20;99.90
20479;DHT22;10398;52.490;13.434;2023-02-15T13:14:13;15.30;99.90
20479;DHT22;10398;52.490;13.434;2023-02-15T13:16:44;15.40;99.90
20479;DHT22;10398;52.490;13.434;2023-02-15T13:19:14;15.60;99.90
20479;DHT22;10398;52.490;13.434;2023-02-15T13:21:44;15.70;99.90
20479;DHT22;10398;52.490;13.434;2023-02-15T13:24:18;15.60;99.90
20479;DHT22;10398;52.490;13.434;2023-02-15T13:26:46;15.30;99.90
20479;DHT22;10398;52.490;13.434;2023-02-15T13:29:22;14.70;99.90
20479;DHT22;10398;52.490;13.434;2023-02-15T13:31:50;13.90;99.90
20479;DHT22;10398;52.490;13.434;2023-02-15T13:34:25;13.30;99.90
20479;DHT22;10398;52.490;13.434;2023-02-15T13:37:20;12.90;99.90
20479;DHT22;10398;52.490;13.434;2023-02-15T13:39:47;12.90;99.90
20479;DHT22;10398;52.490;13.434;2023-02-15T13:42:38;12.90;99.90
20479;DHT22;10398;52.490;13.434;2023-02-15T13:45:27;13.10;99.90
20479;DHT22;10398;52.490;13.434;2023-02-15T13:56:34;13.60;99.90
20479;DHT22;10398;52.490;13.434;2023-02-15T14:01:58;13.20;99.90
20479;DHT22;10398;52.490;13.434;2023-02-15T14:08:13;13.00;99.90
20479;DHT22;10398;52.490;13.434;2023-02-15T14:18:51;12.70;99.90
20479;DHT22;10398;52.490;13.434;2023-02-15T14:21:30;12.60;99.90
20479;DHT22;10398;52.490;13.434;2023-02-15T14:24:37;12.40;99.90
20479;DHT22;10398;52.490;13.434;2023-02-15T14:30:32;12.10;99.90
20479;DHT22;10398;52.490;13.434;2023-02-15T14:33:08;11.90;99.90
20479;DHT22;10398;52.490;13.434;2023-02-15T14:35:42;11.90;99.90
20479;DHT22;10398;52.490;13.434;2023-02-15T14:44:18;11.80;99.90
20479;DHT22;10398;52.490;13.434;2023-02-15T14:47:11;11.70;99.90
20479;DHT22;10398;52.490;13.434;2023-02-15T14:49:40;11.70;99.90
20479;DHT22;10398;52.490;13.434;2023-02-15T14:52:07;11.70;99.90
20479;DHT22;10398;52.490;13.434;2023-02-15T14:59:56;11.70;99.90
20479;DHT22;10398;52.490;13.434;2023-02-15T15:02:48;11.60;99.90
20479;DHT22;10398;52.490;13.434;2023-02-15T15:05:20;11.50;99.90
20479;DHT22;10398;52.490;13.434;2023-02-15T15:07:50;11.40;99.90
20479;DHT22;10398;52.490;13.434;2023-02-15T15:15:38;11.40;99.90
20479;DHT22;10398;52.490;13.434;2023-02-15T15:18:47;11.30;99.90
20479;DHT22;10398;52.490;13.434;2023-02-15T15:32:50;11.30;99.90
20479;DHT22;10398;52.490;13.434;2023-02-15T15:39:01;11.40;99.90
20479;DHT22;10398;52.490;13.434;2023-02-15T15:50:17;11.40;99.90
20479;DHT22;10398;52.490;13.434;2023-02-15T15:52:48;11.40;99.90
20479;DHT22;10398;52.490;13.434;2023-02-15T15:55:20;11.30;99.90
20479;DHT22;10398;52.490;13.434;2023-02-15T15:57:49;11.30;99.90
20479;DHT22;10398;52.490;13.434;2023-02-15T16:00:47;11.20;99.90
20479;DHT22;10398;52.490;13.434;2023-02-15T16:03:15;11.20;99.90
20479;DHT22;10398;52.490;13.434;2023-02-15T16:05:41;11.20;99.90
20479;DHT22;10398;52.490;13.434;2023-02-15T16:08:07;11.20;99.90
20479;DHT22;10398;52.490;13.434;2023-02-15T16:10:33;11.10;99.90
20479;DHT22;10398;52.490;13.434;2023-02-15T16:13:01;11.10;99.90
20479;DHT22;10398;52.490;13.434;2023-02-15T16:15:46;11.10;99.90
20479;DHT22;10398;52.490;13.434;2023-02-15T16:18:20;11.00;99.90
20479;DHT22;10398;52.490;13.434;2023-02-15T16:20:57;11.00;99.90
20479;DHT22;10398;52.490;13.434;2023-02-15T16:28:55;11.00;99.90
20479;DHT22;10398;52.490;13.434;2023-02-15T16:31:22;11.00;99.90
20479;DHT22;10398;52.490;13.434;2023-02-15T16:33:48;11.00;99.90
20479;DHT22;10398;52.490;13.434;2023-02-15T16:36:21;10.90;99.90
20479;DHT22;10398;52.490;13.434;2023-02-15T16:41:24;10.90;99.90
20479;DHT22;10398;52.490;13.434;2023-02-15T16:43:53;10.80;99.90
20479;DHT22;10398;52.490;13.434;2023-02-15T16:46:23;10.70;99.90
20479;DHT22;10398;52.490;13.434;2023-02-15T16:48:51;10.70;99.90
20479;DHT22;10398;52.490;13.434;2023-02-15T16:51:24;10.70;99.90
20479;DHT22;10398;52.490;13.434;2023-02-15T16:53:51;10.60;99.90
20479;DHT22;10398;52.490;13.434;2023-02-15T16:56:26;10.60;99.90
20479;DHT22;10398;52.490;13.434;2023-02-15T16:58:55;10.50;99.90
20479;DHT22;10398;52.490;13.434;2023-02-15T17:01:24;10.40;99.90
20479;DHT22;10398;52.490;13.434;2023-02-15T17:03:51;10.50;99.90
20479;DHT22;10398;52.490;13.434;2023-02-15T17:06:25;10.40;99.90
20479;DHT22;10398;52.490;13.434;2023-02-15T17:08:52;10.30;99.90
20479;DHT22;10398;52.490;13.434;2023-02-15T17:11:22;10.30;99.90
20479;DHT22;10398;52.490;13.434;2023-02-15T17:19:29;10.20;99.90
20479;DHT22;10398;52.490;13.434;2023-02-15T17:22:04;10.20;99.90
20479;DHT22;10398;52.490;13.434;2023-02-15T17:24:44;10.20;99.90
20479;DHT22;10398;52.490;13.434;2023-02-15T17:27:19;10.10;99.90
20479;DHT22;10398;52.490;13.434;2023-02-15T17:29:51;10.00;99.90
20479;DHT22;10398;52.490;13.434;2023-02-15T17:32:23;9.90;99.90
20479;DHT22;10398;52.490;13.434;2023-02-15T17:42:43;9.70;99.90
20479;DHT22;10398;52.490;13.434;2023-02-15T17:45:09;9.80;99.90
20479;DHT22;10398;52.490;13.434;2023-02-15T17:47:34;9.80;99.90
20479;DHT22;10398;52.490;13.434;2023-02-15T17:50:02;9.70;99.90
20479;DHT22;10398;52.490;13.434;2023-02-15T17:52:30;9.60;99.90
20479;DHT22;10398;52.490;13.434;2023-02-15T17:54:56;9.50;99.90
20479;DHT22;10398;52.490;13.434;2023-02-15T17:57:40;9.50;99.90
20479;DHT22;10398;52.490;13.434;2023-02-15T18:00:06;9.40;99.90
20479;DHT22;10398;52.490;13.434;2023-02-15T18:02:51;9.40;99.90
20479;DHT22;10398;52.490;13.434;2023-02-15T18:05:36;9.30;99.90
20479;DHT22;10398;52.490;13.434;2023-02-15T18:08:25;9.20;99.90
20479;DHT22;10398;52.490;13.434;2023-02-15T18:11:10;9.20;99.90
20479;DHT22;10398;52.490;13.434;2023-02-15T18:13:54;9.20;99.90
20479;DHT22;10398;52.490;13.434;2023-02-15T18:16:27;9.30;99.90
20479;DHT22;10398;52.490;13.434;2023-02-15T18:18:55;9.30;99.90
20479;DHT22;10398;52.490;13.434;2023-02-15T18:21:22;9.20;99.90
20479;DHT22;10398;52.490;13.434;2023-02-15T18:23:48;9.20;99.90
20479;DHT22;10398;52.490;13.434;2023-02-15T18:26:25;9.20;99.90
20479;DHT22;10398;52.490;13.434;2023-02-15T18:28:51;9.10;99.90
20479;DHT22;10398;52.490;13.434;2023-02-15T18:31:17;9.10;99.90
20479;DHT22;10398;52.490;13.434;2023-02-15T18:33:46;9.00;99.90
20479;DHT22;10398;52.490;13.434;2023-02-15T18:36:21;9.00;99.90
20479;DHT22;10398;52.490;13.434;2023-02-15T18:38:48;9.00;99.90
20479;DHT22;10398;52.490;13.434;2023-02-15T18:41:16;9.00;99.90
20479;DHT22;10398;52.490;13.434;2023-02-15T18:43:43;9.00;99.90
20479;DHT22;10398;52.490;13.434;2023-02-15T18:46:08;9.00;99.90
20479;DHT22;10398;52.490;13.434;2023-02-15T18:48:34;9.00;99.90
20479;DHT22;10398;52.490;13.434;2023-02-15T18:51:00;9.00;99.90
20479;DHT22;10398;52.490;13.434;2023-02-15T18:53:26;9.00;99.90
20479;DHT22;10398;52.490;13.434;2023-02-15T18:55:51;9.00;99.90
20479;DHT22;10398;52.490;13.434;2023-02-15T18:58:19;9.00;99.90
20479;DHT22;10398;52.490;13.434;2023-02-15T19:00:46;9.00;99.90
20479;DHT22;10398;52.490;13.434;2023-02-15T19:03:15;9.00;99.90
20479;DHT22;10398;52.490;13.434;2023-02-15T19:05:44;9.00;99.90
20479;DHT22;10398;52.490;13.434;2023-02-15T19:08:28;9.00;99.90
20479;DHT22;10398;52.490;13.434;2023-02-15T19:11:00;9.00;99.90
20479;DHT22;10398;52.490;13.434;2023-02-15T19:13:26;9.00;99.90